sensor_id;sensor_type;location;lat;lon;timestamp;temperature;humidity
10812;DHT22;5458;51.496;7.334;2023-03-24T00:01:16;12.40;99.90
10812;DHT22;5458;51.496;7.334;2023-03-24T00:03:42;12.40;99.90
10812;DHT22;5458;51.496;7.334;2023-03-24T00:06:13;12.40;99.90
10812;DHT22;5458;51.496;7.334;2023-03-24T00:08:40;12.40;99.90
10812;DHT22;5458;51.496;7.334;2023-03-24T00:11:09;12.40;99.90
10812;DHT22;5458;51.496;7.334;2023-03-24T00:13:36;12.40;99.90
10812;DHT22;5458;51.496;7.334;2023-03-24T00:16:11;12.50;99.90
10812;DHT22;5458;51.496;7.334;2023-03-24T00:18:38;12.50;99.90
10812;DHT22;5458;51.496;7.334;2023-03-24T00:21:05;12.40;99.90
10812;DHT22;5458;51.496;7.334;2023-03-24T00:23:32;12.40;99.90
10812;DHT22;5458;51.496;7.334;2023-03-24T00:26:02;12.40;99.90
10812;DHT22;5458;51.496;7.334;2023-03-24T00:28:30;12.40;99.90
10812;DHT22;5458;51.496;7.334;2023-03-24T00:30:58;12.40;99.90
10812;DHT22;5458;51.496;7.334;2023-03-24T00:33:24;12.40;99.90
10812;DHT22;5458;51.496;7.334;2023-03-24T00:35:50;12.40;99.90
10812;DHT22;5458;51.496;7.334;2023-03-24T00:38:16;12.40;99.90
10812;DHT22;5458;51.496;7.334;2023-03-24T00:40:45;12.40;99.90
10812;DHT22;5458;51.496;7.334;2023-03-24T00:43:13;12.40;99.90
10812;DHT22;5458;51.496;7.334;2023-03-24T00:45:39;12.40;99.90
10812;DHT22;5458;51.496;7.334;2023-03-24T00:48:14;12.40;99.90
10812;DHT22;5458;51.496;7.334;2023-03-24T00:50:47;12.40;99.90
10812;DHT22;5458;51.496;7.334;2023-03-24T00:53:14;12.40;99.90
10812;DHT22;5458;51.496;7.334;2023-03-24T00:55:41;12.40;99.90
10812;DHT22;5458;51.496;7.334;2023-03-24T00:58:07;12.40;99.90
10812;DHT22;5458;51.496;7.334;2023-03-24T01:00:32;12.40;99.90
10812;DHT22;5458;51.496;7.334;2023-03-24T01:02:59;12.40;99.90
10812;DHT22;5458;51.496;7.334;2023-03-24T01:05:29;12.40;99.90
10812;DHT22;5458;51.496;7.334;2023-03-24T01:07:56;12.50;99.90
10812;DHT22;5458;51.496;7.334;2023-03-24T01:10:23;12.40;99.90
10812;DHT22;5458;51.496;7.334;2023-03-24T01:12:54;12.40;99.90
10812;DHT22;5458;51.496;7.334;2023-03-24T01:15:22;12.40;99.90
10812;DHT22;5458;51.496;7.334;2023-03-24T01:17:49;12.40;99.90
10812;DHT22;5458;51.496;7.334;2023-03-24T01:20:17;12.50;99.90
10812;DHT22;5458;51.496;7.334;2023-03-24T01:22:43;12.40;99.90
10812;DHT22;5458;51.496;7.334;2023-03-24T01:25:15;12.50;99.90
10812;DHT22;5458;51.496;7.334;2023-03-24T01:27:42;12.50;99.90
10812;DHT22;5458;51.496;7.334;2023-03-24T01:30:10;12.50;99.90
10812;DHT22;5458;51.496;7.334;2023-03-24T01:32:36;12.40;99.90
10812;DHT22;5458;51.496;7.334;2023-03-24T01:35:01;12.40;99.90
10812;DHT22;5458;51.496;7.334;2023-03-24T01:37:27;12.40;99.90
10812;DHT22;5458;51.496;7.334;2023-03-24T01:39:53;12.40;99.90
10812;DHT22;5458;51.496;7.334;2023-03-24T01:42:21;12.40;99.90
10812;DHT22;5458;51.496;7.334;2023-03-24T01:44:49;12.50;99.90
10812;DHT22;5458;51.496;7.334;2023-03-24T01:47:15;12.50;99.90
10812;DHT22;5458;51.496;7.334;2023-03-24T01:50:00;12.50;99.90
10812;DHT22;5458;51.496;7.334;2023-03-24T01:52:33;12.50;99.90
10812;DHT22;5458;51.496;7.334;2023-03-24T01:55:13;12.40;99.90
10812;DHT22;5458;51.496;7.334;2023-03-24T01:57:46;12.40;99.90
10812;DHT22;5458;51.496;7.334;2023-03-24T02:00:17;12.40;99.90
10812;DHT22;5458;51.496;7.334;2023-03-24T02:02:50;12.50;99.90
10812;DHT22;5458;51.496;7.334;2023-03-24T02:05:21;12.40;99.90
10812;DHT22;5458;51.496;7.334;2023-03-24T02:10:33;12.40;99.90
10812;DHT22;5458;51.496;7.334;2023-03-24T02:12:59;12.40;99.90
10812;DHT22;5458;51.496;7.334;2023-03-24T02:15:27;12.40;99.90
10812;DHT22;5458;51.496;7.334;2023-03-24T02:18:12;12.40;99.90
10812;DHT22;5458;51.496;7.334;2023-03-24T02:23:56;12.40;99.90
10812;DHT22;5458;51.496;7.334;2023-03-24T02:37:59;12.50;99.90
10812;DHT22;5458;51.496;7.334;2023-03-24T02:43:13;12.50;99.90
10812;DHT22;5458;51.496;7.334;2023-03-24T02:48:57;12.50;99.90
10812;DHT22;5458;51.496;7.334;2023-03-24T02:54:18;12.50;99.90
10812;DHT22;5458;51.496;7.334;2023-03-24T02:56:54;12.50;99.90
10812;DHT22;5458;51.496;7.334;2023-03-24T02:59:41;12.60;99.90
10812;DHT22;5458;51.496;7.334;2023-03-24T03:02:23;12.60;99.90
10812;DHT22;5458;51.496;7.334;2023-03-24T03:04:57;12.60;99.90
10812;DHT22;5458;51.496;7.334;2023-03-24T03:07:26;12.60;99.90
10812;DHT22;5458;51.496;7.334;2023-03-24T03:10:04;12.60;99.90
10812;DHT22;5458;51.496;7.334;2023-03-24T03:12:34;12.60;99.90
10812;DHT22;5458;51.496;7.334;2023-03-24T03:15:11;12.60;99.90
10812;DHT22;5458;51.496;7.334;2023-03-24T03:17:41;12.60;99.90
10812;DHT22;5458;51.496;7.334;2023-03-24T03:20:14;12.60;99.90
10812;DHT22;5458;51.496;7.334;2023-03-24T03:22:55;12.70;99.90
10812;DHT22;5458;51.496;7.334;2023-03-24T03:25:26;12.70;99.90
10812;DHT22;5458;51.496;7.334;2023-03-24T03:27:55;12.70;99.90
10812;DHT22;5458;51.496;7.334;2023-03-24T03:30:31;12.70;99.90
10812;DHT22;5458;51.496;7.334;2023-03-24T03:33:07;12.70;99.90
10812;DHT22;5458;51.496;7.334;2023-03-24T03:35:58;12.70;99.90
10812;DHT22;5458;51.496;7.334;2023-03-24T03:41:31;12.70;99.90
10812;DHT22;5458;51.496;7.334;2023-03-24T03:43:57;12.80;99.90
10812;DHT22;5458;51.496;7.334;2023-03-24T03:46:22;12.80;99.90
10812;DHT22;5458;51.496;7.334;2023-03-24T03:48:48;12.80;99.90
10812;DHT22;5458;51.496;7.334;2023-03-24T03:51:14;12.80;99.90
10812;DHT22;5458;51.496;7.334;2023-03-24T03:53:53;12.80;99.90
10812;DHT22;5458;51.496;7.334;2023-03-24T03:56:22;12.90;99.90
10812;DHT22;5458;51.496;7.334;2023-03-24T03:58:48;12.90;99.90
10812;DHT22;5458;51.496;7.334;2023-03-24T04:01:20;12.90;99.90
10812;DHT22;5458;51.496;7.334;2023-03-24T04:06:38;12.90;99.90
10812;DHT22;5458;51.496;7.334;2023-03-24T04:15:10;12.90;99.90
10812;DHT22;5458;51.496;7.334;2023-03-24T04:20:10;12.80;99.90
10812;DHT22;5458;51.496;7.334;2023-03-24T04:23:07;12.80;99.90
10812;DHT22;5458;51.496;7.334;2023-03-24T04:31:28;12.90;99.90
10812;DHT22;5458;51.496;7.334;2023-03-24T04:33:58;12.90;99.90
10812;DHT22;5458;51.496;7.334;2023-03-24T04:36:34;12.80;99.90
10812;DHT22;5458;51.496;7.334;2023-03-24T04:39:11;12.80;99.90
10812;DHT22;5458;51.496;7.334;2023-03-24T04:41:39;12.80;99.90
10812;DHT22;5458;51.496;7.334;2023-03-24T04:44:08;12.80;99.90
10812;DHT22;5458;51.496;7.334;2023-03-24T04:46:35;12.80;99.90
10812;DHT22;5458;51.496;7.334;2023-03-24T04:49:02;12.80;99.90
10812;DHT22;5458;51.496;7.334;2023-03-24T04:51:29;12.70;99.90
10812;DHT22;5458;51.496;7.334;2023-03-24T04:53:55;12.70;99.90
10812;DHT22;5458;51.496;7.334;2023-03-24T04:56:42;12.70;99.90
10812;DHT22;5458;51.496;7.334;2023-03-24T04:59:10;12.70;99.90
10812;DHT22;5458;51.496;7.334;2023-03-24T05:01:37;12.70;99.90
10812;DHT22;5458;51.496;7.334;2023-03-24T05:04:03;12.70;99.90
10812;DHT22;5458;51.496;7.334;2023-03-24T05:06:29;12.70;99.90
10812;DHT22;5458;51.496;7.334;2023-03-24T05:08:55;12.70;99.90
10812;DHT22;5458;51.496;7.334;2023-03-24T05:11:24;12.60;99.90
10812;DHT22;5458;51.496;7.334;2023-03-24T05:13:50;12.60;99.90
10812;DHT22;5458;51.496;7.334;2023-03-24T05:16:15;12.70;99.90
10812;DHT22;5458;51.496;7.334;2023-03-24T05:18:41;12.60;99.90
10812;DHT22;5458;51.496;7.334;2023-03-24T05:21:07;12.60;99.90
10812;DHT22;5458;51.496;7.334;2023-03-24T05:23:33;12.60;99.90
10812;DHT22;5458;51.496;7.334;2023-03-24T05:25:58;12.60;99.90
10812;DHT22;5458;51.496;7.334;2023-03-24T05:28:24;12.60;99.90
10812;DHT22;5458;51.496;7.334;2023-03-24T05:30:50;12.60;99.90
10812;DHT22;5458;51.496;7.334;2023-03-24T05:33:15;12.60;99.90
10812;DHT22;5458;51.496;7.334;2023-03-24T05:35:41;12.50;99.90
10812;DHT22;5458;51.496;7.334;2023-03-24T05:38:07;12.60;99.90
10812;DHT22;5458;51.496;7.334;2023-03-24T05:40:32;12.60;99.90
10812;DHT22;5458;51.496;7.334;2023-03-24T05:42:58;12.70;99.90
10812;DHT22;5458;51.496;7.334;2023-03-24T05:45:24;12.60;99.90
10812;DHT22;5458;51.496;7.334;2023-03-24T05:47:50;12.60;99.90
10812;DHT22;5458;51.496;7.334;2023-03-24T05:50:16;12.60;99.90
10812;DHT22;5458;51.496;7.334;2023-03-24T05:52:41;12.60;99.90
10812;DHT22;5458;51.496;7.334;2023-03-24T05:55:08;12.60;99.90
10812;DHT22;5458;51.496;7.334;2023-03-24T05:57:34;12.50;99.90
10812;DHT22;5458;51.496;7.334;2023-03-24T06:00:02;12.60;99.90
10812;DHT22;5458;51.496;7.334;2023-03-24T06:02:31;12.50;99.90
10812;DHT22;5458;51.496;7.334;2023-03-24T06:04:56;12.40;99.90
10812;DHT22;5458;51.496;7.334;2023-03-24T06:07:23;12.30;99.90
10812;DHT22;5458;51.496;7.334;2023-03-24T06:09:51;12.30;99.90
10812;DHT22;5458;51.496;7.334;2023-03-24T06:12:17;12.30;99.90
10812;DHT22;5458;51.496;7.334;2023-03-24T06:14:42;12.40;99.90
10812;DHT22;5458;51.496;7.334;2023-03-24T06:17:10;12.70;99.90
10812;DHT22;5458;51.496;7.334;2023-03-24T06:19:42;13.30;99.90
10812;DHT22;5458;51.496;7.334;2023-03-24T06:22:17;14.00;99.90
10812;DHT22;5458;51.496;7.334;2023-03-24T06:24:43;15.30;99.90
10812;DHT22;5458;51.496;7.334;2023-03-24T06:27:10;16.10;99.90
10812;DHT22;5458;51.496;7.334;2023-03-24T06:29:36;15.70;99.90
10812;DHT22;5458;51.496;7.334;2023-03-24T06:32:02;14.80;99.90
10812;DHT22;5458;51.496;7.334;2023-03-24T06:34:29;14.10;99.90
10812;DHT22;5458;51.496;7.334;2023-03-24T06:36:56;13.70;99.90
10812;DHT22;5458;51.496;7.334;2023-03-24T06:39:22;13.30;99.90
10812;DHT22;5458;51.496;7.334;2023-03-24T06:41:48;13.00;99.90
10812;DHT22;5458;51.496;7.334;2023-03-24T06:44:13;12.90;99.90
10812;DHT22;5458;51.496;7.334;2023-03-24T06:46:39;12.80;99.90
10812;DHT22;5458;51.496;7.334;2023-03-24T06:49:06;13.00;99.90
10812;DHT22;5458;51.496;7.334;2023-03-24T06:51:31;13.30;99.90
10812;DHT22;5458;51.496;7.334;2023-03-24T06:53:58;14.10;99.90
10812;DHT22;5458;51.496;7.334;2023-03-24T06:56:23;15.50;99.90
10812;DHT22;5458;51.496;7.334;2023-03-24T06:58:49;16.00;99.90
10812;DHT22;5458;51.496;7.334;2023-03-24T07:01:14;17.20;99.90
10812;DHT22;5458;51.496;7.334;2023-03-24T07:03:40;19.20;99.90
10812;DHT22;5458;51.496;7.334;2023-03-24T07:06:07;20.20;99.90
10812;DHT22;5458;51.496;7.334;2023-03-24T07:08:34;20.90;97.10
10812;DHT22;5458;51.496;7.334;2023-03-24T07:11:00;20.70;96.90
10812;DHT22;5458;51.496;7.334;2023-03-24T07:13:27;19.90;96.40
10812;DHT22;5458;51.496;7.334;2023-03-24T07:15:52;19.10;97.90
10812;DHT22;5458;51.496;7.334;2023-03-24T07:18:18;18.60;98.60
10812;DHT22;5458;51.496;7.334;2023-03-24T07:20:44;18.30;99.30
10812;DHT22;5458;51.496;7.334;2023-03-24T07:23:11;18.20;99.90
10812;DHT22;5458;51.496;7.334;2023-03-24T07:25:39;18.50;99.60
10812;DHT22;5458;51.496;7.334;2023-03-24T07:28:05;19.20;99.20
10812;DHT22;5458;51.496;7.334;2023-03-24T07:30:30;20.10;97.50
10812;DHT22;5458;51.496;7.334;2023-03-24T07:32:56;20.20;96.40
10812;DHT22;5458;51.496;7.334;2023-03-24T07:35:22;19.80;96.20
10812;DHT22;5458;51.496;7.334;2023-03-24T07:37:48;20.30;96.60
10812;DHT22;5458;51.496;7.334;2023-03-24T07:40:14;20.10;95.20
10812;DHT22;5458;51.496;7.334;2023-03-24T07:42:41;19.80;95.60
10812;DHT22;5458;51.496;7.334;2023-03-24T07:45:11;19.80;95.30
10812;DHT22;5458;51.496;7.334;2023-03-24T07:47:38;20.10;94.30
10812;DHT22;5458;51.496;7.334;2023-03-24T07:50:07;20.00;94.80
10812;DHT22;5458;51.496;7.334;2023-03-24T07:52:42;21.70;94.30
10812;DHT22;5458;51.496;7.334;2023-03-24T07:55:11;24.30;89.60
10812;DHT22;5458;51.496;7.334;2023-03-24T07:57:47;26.00;83.10
10812;DHT22;5458;51.496;7.334;2023-03-24T08:00:13;27.80;75.20
10812;DHT22;5458;51.496;7.334;2023-03-24T08:02:50;29.30;65.60
10812;DHT22;5458;51.496;7.334;2023-03-24T08:05:20;30.40;59.60
10812;DHT22;5458;51.496;7.334;2023-03-24T08:07:48;30.90;56.50
10812;DHT22;5458;51.496;7.334;2023-03-24T08:10:22;31.30;54.50
10812;DHT22;5458;51.496;7.334;2023-03-24T08:12:49;31.80;53.10
10812;DHT22;5458;51.496;7.334;2023-03-24T08:15:15;31.50;51.30
10812;DHT22;5458;51.496;7.334;2023-03-24T08:17:41;30.70;50.70
10812;DHT22;5458;51.496;7.334;2023-03-24T08:20:09;30.50;50.70
10812;DHT22;5458;51.496;7.334;2023-03-24T08:22:40;29.50;51.60
10812;DHT22;5458;51.496;7.334;2023-03-24T08:25:08;28.20;53.00
10812;DHT22;5458;51.496;7.334;2023-03-24T08:27:34;28.60;53.30
10812;DHT22;5458;51.496;7.334;2023-03-24T08:30:05;28.90;53.10
10812;DHT22;5458;51.496;7.334;2023-03-24T08:32:31;29.40;52.30
10812;DHT22;5458;51.496;7.334;2023-03-24T08:34:57;29.60;51.90
10812;DHT22;5458;51.496;7.334;2023-03-24T08:37:23;29.40;51.50
10812;DHT22;5458;51.496;7.334;2023-03-24T08:39:48;29.80;51.90
10812;DHT22;5458;51.496;7.334;2023-03-24T08:42:14;29.20;50.40
10812;DHT22;5458;51.496;7.334;2023-03-24T08:44:40;28.40;52.20
10812;DHT22;5458;51.496;7.334;2023-03-24T08:47:06;28.00;52.00
10812;DHT22;5458;51.496;7.334;2023-03-24T08:49:32;25.90;53.90
10812;DHT22;5458;51.496;7.334;2023-03-24T08:51:57;25.00;56.50
10812;DHT22;5458;51.496;7.334;2023-03-24T08:54:23;24.30;58.90
10812;DHT22;5458;51.496;7.334;2023-03-24T08:56:50;23.30;60.40
10812;DHT22;5458;51.496;7.334;2023-03-24T08:59:16;21.80;62.90
10812;DHT22;5458;51.496;7.334;2023-03-24T09:01:42;21.00;66.50
10812;DHT22;5458;51.496;7.334;2023-03-24T09:04:07;20.60;68.40
10812;DHT22;5458;51.496;7.334;2023-03-24T09:06:33;21.10;69.00
10812;DHT22;5458;51.496;7.334;2023-03-24T09:08:58;21.30;69.90
10812;DHT22;5458;51.496;7.334;2023-03-24T09:11:24;22.10;69.20
10812;DHT22;5458;51.496;7.334;2023-03-24T09:13:49;22.00;67.90
10812;DHT22;5458;51.496;7.334;2023-03-24T09:16:15;22.10;68.30
10812;DHT22;5458;51.496;7.334;2023-03-24T09:18:42;22.00;67.30
10812;DHT22;5458;51.496;7.334;2023-03-24T09:21:08;21.40;68.90
10812;DHT22;5458;51.496;7.334;2023-03-24T09:23:34;20.90;71.60
10812;DHT22;5458;51.496;7.334;2023-03-24T09:26:01;20.60;71.70
10812;DHT22;5458;51.496;7.334;2023-03-24T09:28:27;20.10;72.50
10812;DHT22;5458;51.496;7.334;2023-03-24T09:30:58;19.90;74.50
10812;DHT22;5458;51.496;7.334;2023-03-24T09:33:25;19.60;74.40
10812;DHT22;5458;51.496;7.334;2023-03-24T09:35:55;19.30;75.30
10812;DHT22;5458;51.496;7.334;2023-03-24T09:38:22;19.30;75.50
10812;DHT22;5458;51.496;7.334;2023-03-24T09:40:52;18.90;76.30
10812;DHT22;5458;51.496;7.334;2023-03-24T09:43:28;18.50;77.60
10812;DHT22;5458;51.496;7.334;2023-03-24T09:45:57;18.50;79.70
10812;DHT22;5458;51.496;7.334;2023-03-24T09:51:25;18.50;81.00
10812;DHT22;5458;51.496;7.334;2023-03-24T09:56:44;18.30;80.40
10812;DHT22;5458;51.496;7.334;2023-03-24T09:59:35;18.10;79.90
10812;DHT22;5458;51.496;7.334;2023-03-24T10:02:16;18.00;80.90
10812;DHT22;5458;51.496;7.334;2023-03-24T10:04:42;17.80;82.30
10812;DHT22;5458;51.496;7.334;2023-03-24T10:09:59;17.80;82.40
10812;DHT22;5458;51.496;7.334;2023-03-24T10:15:13;17.80;82.80
10812;DHT22;5458;51.496;7.334;2023-03-24T10:20:19;17.50;83.50
10812;DHT22;5458;51.496;7.334;2023-03-24T10:25:42;17.60;84.00
10812;DHT22;5458;51.496;7.334;2023-03-24T10:28:24;17.50;84.10
10812;DHT22;5458;51.496;7.334;2023-03-24T10:30:53;17.40;85.20
10812;DHT22;5458;51.496;7.334;2023-03-24T10:33:20;17.20;85.40
10812;DHT22;5458;51.496;7.334;2023-03-24T10:36:07;17.10;86.10
10812;DHT22;5458;51.496;7.334;2023-03-24T10:38:33;17.10;86.90
10812;DHT22;5458;51.496;7.334;2023-03-24T10:41:00;17.10;87.30
10812;DHT22;5458;51.496;7.334;2023-03-24T10:43:26;17.10;86.70
10812;DHT22;5458;51.496;7.334;2023-03-24T10:45:55;17.00;87.20
10812;DHT22;5458;51.496;7.334;2023-03-24T10:51:16;16.90;87.20
10812;DHT22;5458;51.496;7.334;2023-03-24T10:53:43;16.90;88.40
10812;DHT22;5458;51.496;7.334;2023-03-24T10:56:15;16.80;87.90
10812;DHT22;5458;51.496;7.334;2023-03-24T10:58:42;16.80;89.10
10812;DHT22;5458;51.496;7.334;2023-03-24T11:01:24;16.80;90.00
10812;DHT22;5458;51.496;7.334;2023-03-24T11:04:06;17.00;90.00
10812;DHT22;5458;51.496;7.334;2023-03-24T11:06:35;17.10;88.40
10812;DHT22;5458;51.496;7.334;2023-03-24T11:09:27;17.30;88.90
10812;DHT22;5458;51.496;7.334;2023-03-24T11:11:53;17.20;87.80
10812;DHT22;5458;51.496;7.334;2023-03-24T11:14:26;17.20;86.50
10812;DHT22;5458;51.496;7.334;2023-03-24T11:17:01;17.10;84.50
10812;DHT22;5458;51.496;7.334;2023-03-24T11:19:29;17.10;85.00
10812;DHT22;5458;51.496;7.334;2023-03-24T11:22:00;17.10;83.90
10812;DHT22;5458;51.496;7.334;2023-03-24T11:24:28;17.00;83.40
10812;DHT22;5458;51.496;7.334;2023-03-24T11:26:58;17.10;85.20
10812;DHT22;5458;51.496;7.334;2023-03-24T11:29:27;17.10;84.30
10812;DHT22;5458;51.496;7.334;2023-03-24T11:32:02;17.10;84.40
10812;DHT22;5458;51.496;7.334;2023-03-24T11:34:38;17.10;83.00
10812;DHT22;5458;51.496;7.334;2023-03-24T11:37:20;16.90;84.10
10812;DHT22;5458;51.496;7.334;2023-03-24T11:40:15;16.90;85.10
10812;DHT22;5458;51.496;7.334;2023-03-24T11:42:49;16.90;85.80
10812;DHT22;5458;51.496;7.334;2023-03-24T11:45:35;16.80;83.80
10812;DHT22;5458;51.496;7.334;2023-03-24T11:48:08;16.80;83.00
10812;DHT22;5458;51.496;7.334;2023-03-24T11:50:37;16.90;83.10
10812;DHT22;5458;51.496;7.334;2023-03-24T11:53:11;16.80;80.80
10812;DHT22;5458;51.496;7.334;2023-03-24T11:55:45;16.60;82.70
10812;DHT22;5458;51.496;7.334;2023-03-24T11:58:31;16.70;85.20
10812;DHT22;5458;51.496;7.334;2023-03-24T12:01:05;17.00;84.20
10812;DHT22;5458;51.496;7.334;2023-03-24T12:06:22;17.20;86.00
10812;DHT22;5458;51.496;7.334;2023-03-24T12:08:59;17.40;86.70
10812;DHT22;5458;51.496;7.334;2023-03-24T12:14:39;17.30;84.90
10812;DHT22;5458;51.496;7.334;2023-03-24T12:17:13;17.10;82.80
10812;DHT22;5458;51.496;7.334;2023-03-24T12:23:03;17.00;81.40
10812;DHT22;5458;51.496;7.334;2023-03-24T12:28:54;17.00;83.50
10812;DHT22;5458;51.496;7.334;2023-03-24T12:39:36;17.10;82.50
10812;DHT22;5458;51.496;7.334;2023-03-24T12:42:16;17.00;82.30
10812;DHT22;5458;51.496;7.334;2023-03-24T12:44:59;16.90;82.10
10812;DHT22;5458;51.496;7.334;2023-03-24T12:51:07;16.70;83.50
10812;DHT22;5458;51.496;7.334;2023-03-24T12:56:42;17.00;85.30
10812;DHT22;5458;51.496;7.334;2023-03-24T12:59:13;17.00;84.90
10812;DHT22;5458;51.496;7.334;2023-03-24T13:01:45;17.00;85.50
10812;DHT22;5458;51.496;7.334;2023-03-24T13:04:21;17.00;85.30
10812;DHT22;5458;51.496;7.334;2023-03-24T13:09:47;17.00;84.40
10812;DHT22;5458;51.496;7.334;2023-03-24T13:17:58;17.00;84.40
10812;DHT22;5458;51.496;7.334;2023-03-24T13:20:41;16.90;84.10
10812;DHT22;5458;51.496;7.334;2023-03-24T13:23:39;16.90;84.70
10812;DHT22;5458;51.496;7.334;2023-03-24T13:29:03;16.80;85.20
10812;DHT22;5458;51.496;7.334;2023-03-24T13:31:43;16.70;85.40
10812;DHT22;5458;51.496;7.334;2023-03-24T13:34:26;16.50;86.10
10812;DHT22;5458;51.496;7.334;2023-03-24T13:37:00;16.20;91.20
10812;DHT22;5458;51.496;7.334;2023-03-24T13:39:27;16.00;91.80
10812;DHT22;5458;51.496;7.334;2023-03-24T13:41:56;15.90;91.70
10812;DHT22;5458;51.496;7.334;2023-03-24T13:47:14;16.10;92.60
10812;DHT22;5458;51.496;7.334;2023-03-24T13:49:44;16.20;92.30
10812;DHT22;5458;51.496;7.334;2023-03-24T13:52:43;16.20;92.20
10812;DHT22;5458;51.496;7.334;2023-03-24T13:55:14;16.30;92.30
10812;DHT22;5458;51.496;7.334;2023-03-24T13:57:59;16.30;92.50
10812;DHT22;5458;51.496;7.334;2023-03-24T14:00:26;16.40;92.30
10812;DHT22;5458;51.496;7.334;2023-03-24T14:03:12;16.30;91.70
10812;DHT22;5458;51.496;7.334;2023-03-24T14:10:46;16.40;91.90
10812;DHT22;5458;51.496;7.334;2023-03-24T14:15:56;16.50;91.00
10812;DHT22;5458;51.496;7.334;2023-03-24T14:26:11;15.80;93.90
10812;DHT22;5458;51.496;7.334;2023-03-24T14:28:40;15.80;92.70
10812;DHT22;5458;51.496;7.334;2023-03-24T14:31:19;15.80;92.30
10812;DHT22;5458;51.496;7.334;2023-03-24T14:36:32;15.90;92.10
10812;DHT22;5458;51.496;7.334;2023-03-24T14:39:47;15.80;92.20
10812;DHT22;5458;51.496;7.334;2023-03-24T14:45:05;15.70;92.70
10812;DHT22;5458;51.496;7.334;2023-03-24T14:47:34;15.60;92.60
10812;DHT22;5458;51.496;7.334;2023-03-24T14:50:19;15.60;92.70
10812;DHT22;5458;51.496;7.334;2023-03-24T14:52:52;15.60;92.90
10812;DHT22;5458;51.496;7.334;2023-03-24T14:55:19;15.50;93.10
10812;DHT22;5458;51.496;7.334;2023-03-24T14:57:55;15.40;93.10
10812;DHT22;5458;51.496;7.334;2023-03-24T15:03:10;15.20;94.00
10812;DHT22;5458;51.496;7.334;2023-03-24T15:05:40;15.10;94.30
10812;DHT22;5458;51.496;7.334;2023-03-24T15:08:21;15.00;95.00
10812;DHT22;5458;51.496;7.334;2023-03-24T15:11:02;14.90;95.50
10812;DHT22;5458;51.496;7.334;2023-03-24T15:13:42;14.70;96.00
10812;DHT22;5458;51.496;7.334;2023-03-24T15:19:02;14.60;96.50
10812;DHT22;5458;51.496;7.334;2023-03-24T15:21:36;14.70;97.10
10812;DHT22;5458;51.496;7.334;2023-03-24T15:26:48;14.80;98.70
10812;DHT22;5458;51.496;7.334;2023-03-24T15:29:13;15.00;99.40
10812;DHT22;5458;51.496;7.334;2023-03-24T15:31:39;15.20;99.60
10812;DHT22;5458;51.496;7.334;2023-03-24T15:34:39;15.50;99.10
10812;DHT22;5458;51.496;7.334;2023-03-24T15:37:29;15.70;98.60
10812;DHT22;5458;51.496;7.334;2023-03-24T15:39:55;15.60;97.70
10812;DHT22;5458;51.496;7.334;2023-03-24T15:42:23;15.50;97.60
10812;DHT22;5458;51.496;7.334;2023-03-24T15:44:49;15.40;97.60
10812;DHT22;5458;51.496;7.334;2023-03-24T15:47:22;15.30;97.40
10812;DHT22;5458;51.496;7.334;2023-03-24T15:49:51;15.20;97.50
10812;DHT22;5458;51.496;7.334;2023-03-24T15:52:35;15.10;97.50
10812;DHT22;5458;51.496;7.334;2023-03-24T15:57:38;14.90;97.60
10812;DHT22;5458;51.496;7.334;2023-03-24T16:00:16;14.80;97.90
10812;DHT22;5458;51.496;7.334;2023-03-24T16:02:49;14.80;98.30
10812;DHT22;5458;51.496;7.334;2023-03-24T16:05:26;14.70;98.20
10812;DHT22;5458;51.496;7.334;2023-03-24T16:10:39;14.70;98.60
10812;DHT22;5458;51.496;7.334;2023-03-24T16:13:21;14.70;98.70
10812;DHT22;5458;51.496;7.334;2023-03-24T16:15:57;14.70;98.70
10812;DHT22;5458;51.496;7.334;2023-03-24T16:18:33;14.70;98.70
10812;DHT22;5458;51.496;7.334;2023-03-24T16:21:15;14.60;99.50
10812;DHT22;5458;51.496;7.334;2023-03-24T16:23:41;14.50;99.90
10812;DHT22;5458;51.496;7.334;2023-03-24T16:26:28;14.30;99.90
10812;DHT22;5458;51.496;7.334;2023-03-24T16:28:59;13.90;99.90
10812;DHT22;5458;51.496;7.334;2023-03-24T16:31:31;13.60;99.90
10812;DHT22;5458;51.496;7.334;2023-03-24T16:34:01;13.50;99.90
10812;DHT22;5458;51.496;7.334;2023-03-24T16:36:27;13.30;99.90
10812;DHT22;5458;51.496;7.334;2023-03-24T16:38:54;13.20;99.90
10812;DHT22;5458;51.496;7.334;2023-03-24T16:41:20;13.20;99.90
10812;DHT22;5458;51.496;7.334;2023-03-24T16:43:46;13.30;99.90
10812;DHT22;5458;51.496;7.334;2023-03-24T16:46:13;13.30;99.90
10812;DHT22;5458;51.496;7.334;2023-03-24T16:48:41;13.40;99.90
10812;DHT22;5458;51.496;7.334;2023-03-24T16:51:14;13.40;99.90
10812;DHT22;5458;51.496;7.334;2023-03-24T16:53:41;13.50;99.90
10812;DHT22;5458;51.496;7.334;2023-03-24T16:56:08;13.60;99.90
10812;DHT22;5458;51.496;7.334;2023-03-24T16:58:34;13.60;99.90
10812;DHT22;5458;51.496;7.334;2023-03-24T17:01:00;13.60;99.90
10812;DHT22;5458;51.496;7.334;2023-03-24T17:03:26;13.60;99.90
10812;DHT22;5458;51.496;7.334;2023-03-24T17:05:55;13.60;99.90
10812;DHT22;5458;51.496;7.334;2023-03-24T17:08:21;13.70;99.90
10812;DHT22;5458;51.496;7.334;2023-03-24T17:10:51;13.70;99.90
10812;DHT22;5458;51.496;7.334;2023-03-24T17:13:19;13.80;99.90
10812;DHT22;5458;51.496;7.334;2023-03-24T17:15:45;13.60;99.90
10812;DHT22;5458;51.496;7.334;2023-03-24T17:18:11;13.70;99.90
10812;DHT22;5458;51.496;7.334;2023-03-24T17:20:36;13.60;99.90
10812;DHT22;5458;51.496;7.334;2023-03-24T17:23:06;13.50;99.90
10812;DHT22;5458;51.496;7.334;2023-03-24T17:25:32;13.40;99.90
10812;DHT22;5458;51.496;7.334;2023-03-24T17:27:58;13.40;99.90
10812;DHT22;5458;51.496;7.334;2023-03-24T17:30:25;13.40;99.90
10812;DHT22;5458;51.496;7.334;2023-03-24T17:32:51;13.30;99.90
10812;DHT22;5458;51.496;7.334;2023-03-24T17:35:20;13.30;99.90
10812;DHT22;5458;51.496;7.334;2023-03-24T17:37:47;13.30;99.90
10812;DHT22;5458;51.496;7.334;2023-03-24T17:40:15;13.30;99.90
10812;DHT22;5458;51.496;7.334;2023-03-24T17:42:42;13.20;99.90
10812;DHT22;5458;51.496;7.334;2023-03-24T17:45:11;13.10;99.90
10812;DHT22;5458;51.496;7.334;2023-03-24T17:47:37;13.00;99.90
10812;DHT22;5458;51.496;7.334;2023-03-24T17:50:04;12.90;99.90
10812;DHT22;5458;51.496;7.334;2023-03-24T17:52:35;12.90;99.90
10812;DHT22;5458;51.496;7.334;2023-03-24T17:55:01;12.80;99.90
10812;DHT22;5458;51.496;7.334;2023-03-24T17:57:29;12.70;99.90
10812;DHT22;5458;51.496;7.334;2023-03-24T17:59:55;12.60;99.90
10812;DHT22;5458;51.496;7.334;2023-03-24T18:02:20;12.60;99.90
10812;DHT22;5458;51.496;7.334;2023-03-24T18:04:46;12.60;99.90
10812;DHT22;5458;51.496;7.334;2023-03-24T18:07:12;12.50;99.90
10812;DHT22;5458;51.496;7.334;2023-03-24T18:09:38;12.50;99.90
10812;DHT22;5458;51.496;7.334;2023-03-24T18:12:04;12.50;99.90
10812;DHT22;5458;51.496;7.334;2023-03-24T18:14:29;12.50;99.90
10812;DHT22;5458;51.496;7.334;2023-03-24T18:16:55;12.50;99.90
10812;DHT22;5458;51.496;7.334;2023-03-24T18:19:21;12.40;99.90
10812;DHT22;5458;51.496;7.334;2023-03-24T18:21:46;12.30;99.90
10812;DHT22;5458;51.496;7.334;2023-03-24T18:24:12;12.20;99.90
10812;DHT22;5458;51.496;7.334;2023-03-24T18:26:38;12.30;99.90